createdAt,value
2022-11-14T00:00:27.988Z,5.00
2022-11-14T00:02:55.908Z,4.90
2022-11-14T00:05:23.750Z,4.80
2022-11-14T00:07:51.574Z,5.20
2022-11-14T00:10:19.545Z,4.90
2022-11-14T00:12:47.348Z,4.80
2022-11-14T00:15:15.452Z,4.90
2022-11-14T00:17:44.643Z,4.80
2022-11-14T00:20:13.074Z,4.80
2022-11-14T00:22:40.883Z,4.80
2022-11-14T00:25:09.057Z,4.80
2022-11-14T00:27:36.895Z,4.80
2022-11-14T00:30:05.134Z,4.80
2022-11-14T00:32:32.992Z,4.70
2022-11-14T00:35:02.139Z,4.60
2022-11-14T00:37:29.985Z,4.70
2022-11-14T00:39:57.804Z,4.60
2022-11-14T00:42:25.625Z,5.00
2022-11-14T00:44:53.427Z,4.60
2022-11-14T00:47:21.684Z,4.50
2022-11-14T00:49:49.531Z,4.50
2022-11-14T00:52:18.673Z,5.00
2022-11-14T00:54:46.474Z,4.40
2022-11-14T00:59:44.896Z,4.40
2022-11-14T01:02:12.759Z,4.30
2022-11-14T01:04:40.595Z,4.30
2022-11-14T01:07:08.431Z,4.30
2022-11-14T01:09:37.737Z,4.30
2022-11-14T01:12:05.883Z,4.20
2022-11-14T01:14:33.744Z,4.30
2022-11-14T01:17:01.534Z,4.30
2022-11-14T01:19:29.380Z,4.20
2022-11-14T01:21:59.579Z,4.20
2022-11-14T01:24:29.616Z,4.20
2022-11-14T01:26:58.774Z,4.20
2022-11-14T01:29:26.568Z,4.20
2022-11-14T01:31:54.412Z,4.10
2022-11-14T01:34:22.257Z,4.10
2022-11-14T01:36:50.094Z,4.10
2022-11-14T01:39:17.935Z,4.00
2022-11-14T01:41:45.783Z,3.90
2022-11-14T01:44:16.306Z,3.90
2022-11-14T01:46:47.356Z,3.90
2022-11-14T01:49:17.046Z,3.80
2022-11-14T01:51:46.775Z,3.80
2022-11-14T01:54:17.575Z,3.80
2022-11-14T01:56:47.899Z,3.80
2022-11-14T01:59:19.137Z,3.80
2022-11-14T02:01:48.077Z,3.80
2022-11-14T02:04:19.179Z,3.80
2022-11-14T02:06:47.703Z,3.80
2022-11-14T02:09:15.693Z,3.80
2022-11-14T02:11:44.797Z,3.80
2022-11-14T02:14:12.935Z,3.80
2022-11-14T02:16:55.502Z,3.70
2022-11-14T02:19:41.610Z,3.70
2022-11-14T02:22:10.810Z,3.60
2022-11-14T02:24:38.627Z,3.60
2022-11-14T02:27:07.180Z,3.60
2022-11-14T02:29:35.801Z,3.60
2022-11-14T02:32:08.084Z,3.60
2022-11-14T02:34:38.216Z,3.50
2022-11-14T02:37:06.293Z,3.50
2022-11-14T02:39:35.529Z,3.60
2022-11-14T02:42:03.343Z,3.90
2022-11-14T02:44:31.174Z,3.50
2022-11-14T02:46:59.006Z,3.50
2022-11-14T02:49:26.798Z,3.50
2022-11-14T02:51:54.625Z,3.50
2022-11-14T02:54:22.429Z,3.50
2022-11-14T02:56:51.601Z,3.50
2022-11-14T02:59:19.589Z,3.40
2022-11-14T03:01:47.417Z,3.40
2022-11-14T03:04:15.322Z,3.30
2022-11-14T03:06:43.172Z,3.30
2022-11-14T03:09:11.093Z,3.30
2022-11-14T03:11:39.662Z,3.20
2022-11-14T03:14:08.825Z,3.20
2022-11-14T03:16:36.733Z,3.10
2022-11-14T03:19:04.581Z,3.20
2022-11-14T03:21:32.412Z,3.20
2022-11-14T03:24:00.268Z,3.20
2022-11-14T03:26:28.074Z,3.20
2022-11-14T03:28:56.289Z,3.10
2022-11-14T03:31:25.403Z,3.10
2022-11-14T03:33:53.226Z,3.10
2022-11-14T03:36:21.501Z,3.10
2022-11-14T03:38:49.341Z,3.10
2022-11-14T03:41:17.177Z,3.00
2022-11-14T03:43:45.004Z,3.00
2022-11-14T03:46:12.921Z,3.00
2022-11-14T03:48:42.122Z,2.90
2022-11-14T03:51:09.915Z,3.00
2022-11-14T03:53:37.732Z,3.30
2022-11-14T03:56:05.899Z,3.10
2022-11-14T03:58:33.688Z,3.10
2022-11-14T04:01:01.578Z,2.90
2022-11-14T04:03:29.433Z,2.90
2022-11-14T04:05:58.600Z,3.00
2022-11-14T04:08:26.411Z,2.90
2022-11-14T04:10:54.257Z,3.20
2022-11-14T04:13:22.072Z,2.90
2022-11-14T04:15:55.419Z,2.80
2022-11-14T04:18:23.333Z,2.80
2022-11-14T04:20:51.196Z,2.70
2022-11-14T04:23:20.679Z,2.60
2022-11-14T04:25:48.522Z,2.50
2022-11-14T04:28:16.369Z,2.50
2022-11-14T04:30:45.167Z,2.50
2022-11-14T04:33:13.063Z,2.50
2022-11-14T04:35:40.867Z,2.60
2022-11-14T04:38:08.695Z,2.60
2022-11-14T04:40:37.897Z,2.60
2022-11-14T04:43:05.744Z,2.60
2022-11-14T04:45:33.688Z,2.60
2022-11-14T04:48:01.563Z,2.50
2022-11-14T04:50:29.374Z,2.50
2022-11-14T04:52:57.272Z,2.50
2022-11-14T04:55:25.073Z,2.50
2022-11-14T04:57:56.436Z,2.40
2022-11-14T05:00:24.657Z,2.40
2022-11-14T05:02:52.520Z,2.40
2022-11-14T05:05:20.315Z,2.50
2022-11-14T05:07:48.195Z,2.50
2022-11-14T05:10:16.031Z,2.50
2022-11-14T05:12:43.885Z,2.40
2022-11-14T05:15:13.207Z,2.40
2022-11-14T05:17:41.007Z,2.40
2022-11-14T05:20:09.260Z,2.30
2022-11-14T05:22:38.858Z,2.40
2022-11-14T05:25:07.169Z,2.40
2022-11-14T05:27:35.157Z,2.40
2022-11-14T05:30:02.968Z,2.50
2022-11-14T05:32:32.132Z,2.40
2022-11-14T05:34:59.964Z,2.40
2022-11-14T05:37:27.784Z,2.30
2022-11-14T05:39:55.599Z,2.30
2022-11-14T05:42:23.426Z,2.30
2022-11-14T05:44:51.419Z,2.30
2022-11-14T05:47:19.232Z,2.30
2022-11-14T05:49:48.352Z,2.20
2022-11-14T05:52:16.233Z,2.20
2022-11-14T05:54:44.054Z,2.20
2022-11-14T05:57:11.902Z,2.20
2022-11-14T05:59:40.119Z,2.10
2022-11-14T06:02:07.962Z,2.10
2022-11-14T06:04:35.863Z,2.10
2022-11-14T06:07:05.178Z,2.10
2022-11-14T06:09:33.060Z,2.10
2022-11-14T06:12:00.864Z,2.10
2022-11-14T06:14:28.678Z,2.10
2022-11-14T06:16:56.572Z,2.10
2022-11-14T06:19:24.748Z,2.00
2022-11-14T06:21:52.584Z,2.00
2022-11-14T06:24:21.784Z,2.00
2022-11-14T06:26:49.619Z,2.00
2022-11-14T06:29:17.436Z,2.00
2022-11-14T06:31:45.264Z,1.80
2022-11-14T06:34:13.394Z,1.90
2022-11-14T06:36:41.175Z,1.90
2022-11-14T06:39:09.133Z,1.90
2022-11-14T06:41:38.372Z,1.90
2022-11-14T06:44:08.889Z,1.90
2022-11-14T06:46:36.788Z,1.90
2022-11-14T06:49:05.158Z,1.90
2022-11-14T06:51:33.132Z,1.40
2022-11-14T06:54:00.964Z,1.80
2022-11-14T06:56:28.889Z,1.80
2022-11-14T06:58:58.045Z,1.80
2022-11-14T07:01:27.013Z,1.80
2022-11-14T07:03:54.994Z,1.80
2022-11-14T07:06:24.366Z,1.80
2022-11-14T07:08:52.808Z,1.90
2022-11-14T07:11:23.800Z,1.80
2022-11-14T07:13:51.804Z,1.90
2022-11-14T07:16:21.308Z,1.90
2022-11-14T07:18:49.159Z,1.90
2022-11-14T07:21:17.095Z,1.90
2022-11-14T07:23:45.039Z,2.20
2022-11-14T07:26:13.019Z,2.00
2022-11-14T07:28:41.451Z,2.20
2022-11-14T07:31:10.647Z,2.30
2022-11-14T07:33:39.921Z,2.50
2022-11-14T07:36:08.086Z,2.60
2022-11-14T07:38:36.441Z,2.80
2022-11-14T07:41:05.495Z,3.00
2022-11-14T07:43:33.470Z,3.20
2022-11-14T07:46:01.891Z,3.70
2022-11-14T07:48:30.177Z,4.10
2022-11-14T07:51:01.453Z,4.50
2022-11-14T07:53:29.526Z,4.50
2022-11-14T07:55:57.744Z,4.80
2022-11-14T07:58:25.458Z,5.30
2022-11-14T08:00:53.355Z,5.30
2022-11-14T08:03:21.257Z,5.60
2022-11-14T08:08:18.588Z,6.40
2022-11-14T08:10:46.421Z,6.70
2022-11-14T08:18:30.376Z,7.90
2022-11-14T08:20:59.187Z,8.10
2022-11-14T08:23:28.353Z,8.60
2022-11-14T08:30:59.464Z,10.00
2022-11-14T08:33:27.319Z,10.40
2022-11-14T08:35:55.158Z,10.60
2022-11-14T08:38:22.981Z,11.00
2022-11-14T08:40:52.150Z,11.40
2022-11-14T08:43:19.962Z,12.00
2022-11-14T08:45:47.766Z,12.70
2022-11-14T08:48:15.588Z,12.80
2022-11-14T08:53:11.588Z,14.00
2022-11-14T08:55:44.538Z,14.60
2022-11-14T08:58:13.761Z,15.10
2022-11-14T09:00:41.588Z,15.50
2022-11-14T09:08:05.973Z,16.70
2022-11-14T09:13:04.083Z,17.50
2022-11-14T09:15:33.976Z,17.80
2022-11-14T09:18:01.847Z,17.80
2022-11-14T09:20:34.029Z,17.80
2022-11-14T09:25:32.597Z,18.00
2022-11-14T09:28:04.426Z,18.40
2022-11-14T09:30:33.811Z,18.70
2022-11-14T09:33:06.956Z,19.10
2022-11-14T09:38:07.560Z,19.00
2022-11-14T09:40:44.043Z,19.30
2022-11-14T09:43:18.997Z,19.70
2022-11-14T09:45:50.695Z,19.80
2022-11-14T09:48:20.798Z,19.40
2022-11-14T09:50:52.846Z,19.60
2022-11-14T09:53:24.150Z,19.60
2022-11-14T09:55:51.960Z,19.60
2022-11-14T09:58:21.120Z,18.40
2022-11-14T10:00:52.594Z,18.50
2022-11-14T10:03:24.736Z,18.20
2022-11-14T10:06:04.288Z,18.50
2022-11-14T10:08:39.140Z,18.40
2022-11-14T10:11:10.154Z,18.30
2022-11-14T10:13:44.899Z,18.60
2022-11-14T10:16:16.690Z,18.60
2022-11-14T10:18:49.558Z,19.20
2022-11-14T10:21:26.185Z,19.70
2022-11-14T10:24:00.758Z,19.90
2022-11-14T10:26:31.141Z,20.60
2022-11-14T10:29:13.147Z,19.80
2022-11-14T10:31:50.027Z,20.50
2022-11-14T10:34:26.436Z,20.40
2022-11-14T10:36:59.118Z,19.70
2022-11-14T10:39:31.593Z,20.90
2022-11-14T10:42:07.453Z,21.10
2022-11-14T10:44:38.765Z,20.80
2022-11-14T10:47:11.849Z,21.10
2022-11-14T10:49:40.047Z,21.70
2022-11-14T10:52:10.867Z,22.60
2022-11-14T10:54:42.348Z,22.10
2022-11-14T10:57:15.799Z,22.80
2022-11-14T10:59:44.174Z,22.40
2022-11-14T11:02:13.430Z,21.30
2022-11-14T11:04:41.973Z,22.10
2022-11-14T11:07:38.839Z,22.20
2022-11-14T11:10:25.058Z,21.80
2022-11-14T11:12:53.740Z,22.10
2022-11-14T11:15:22.928Z,21.50
2022-11-14T11:17:56.825Z,21.80
2022-11-14T11:20:26.778Z,21.50
2022-11-14T11:23:03.512Z,22.00
2022-11-14T11:25:33.014Z,22.60
2022-11-14T11:28:08.335Z,21.20
2022-11-14T11:30:36.150Z,21.80
2022-11-14T11:33:18.450Z,21.70
2022-11-14T11:35:47.569Z,21.40
2022-11-14T11:38:16.163Z,19.80
2022-11-14T11:40:44.998Z,19.70
2022-11-14T11:43:38.003Z,20.80
2022-11-14T11:46:05.999Z,19.30
2022-11-14T11:51:04.279Z,19.50
2022-11-14T11:53:35.352Z,18.90
2022-11-14T11:58:33.939Z,17.40
2022-11-14T12:01:01.771Z,17.40
2022-11-14T12:03:29.770Z,17.40
2022-11-14T12:06:01.863Z,17.20
2022-11-14T12:11:00.501Z,17.10
2022-11-14T12:13:44.525Z,17.30
2022-11-14T12:16:18.061Z,16.80
2022-11-14T12:21:20.368Z,16.50
2022-11-14T12:24:03.056Z,16.30
2022-11-14T12:26:41.544Z,15.70
2022-11-14T12:29:21.239Z,14.90
2022-11-14T12:31:55.298Z,15.20
2022-11-14T12:36:51.534Z,15.80
2022-11-14T12:39:24.715Z,15.60
2022-11-14T12:42:01.645Z,16.60
2022-11-14T12:44:34.226Z,16.60
2022-11-14T12:47:15.625Z,16.70
2022-11-14T12:50:06.438Z,15.70
2022-11-14T12:52:43.838Z,14.80
2022-11-14T12:55:26.501Z,14.60
2022-11-14T12:58:01.493Z,13.40
2022-11-14T13:00:29.684Z,12.40
2022-11-14T13:03:12.364Z,12.40
2022-11-14T13:05:47.337Z,12.20
2022-11-14T13:08:24.096Z,12.30
2022-11-14T13:10:51.961Z,12.70
2022-11-14T13:13:38.414Z,12.70
2022-11-14T13:16:23.986Z,12.30
2022-11-14T13:19:10.757Z,11.40
2022-11-14T13:21:47.981Z,11.10
2022-11-14T13:24:17.045Z,10.90
2022-11-14T13:26:52.589Z,10.10
2022-11-14T13:29:39.061Z,9.70
2022-11-14T13:32:10.587Z,9.80
2022-11-14T13:34:41.252Z,9.80
2022-11-14T13:37:16.123Z,9.80
2022-11-14T13:39:48.461Z,9.10
2022-11-14T13:42:21.355Z,9.30
2022-11-14T13:45:09.497Z,9.50
2022-11-14T13:50:10.176Z,9.60
2022-11-14T13:52:41.631Z,9.60
2022-11-14T13:55:18.961Z,9.20
2022-11-14T13:57:50.653Z,9.00
2022-11-14T14:00:21.203Z,8.80
2022-11-14T14:03:04.416Z,8.50
2022-11-14T14:05:42.263Z,8.60
2022-11-14T14:23:15.620Z,8.90
2022-11-14T14:25:48.864Z,8.80
2022-11-14T14:28:21.883Z,8.70
2022-11-14T14:31:02.520Z,8.50
2022-11-14T14:33:39.838Z,8.30
2022-11-14T14:36:17.282Z,8.50
2022-11-14T14:38:46.522Z,8.40
2022-11-14T14:41:15.652Z,8.40
2022-11-14T14:43:44.692Z,8.30
2022-11-14T14:46:13.348Z,8.50
2022-11-14T14:48:42.132Z,8.60
2022-11-14T14:51:13.900Z,8.80
2022-11-14T14:53:52.025Z,8.50
2022-11-14T14:56:22.658Z,8.50
2022-11-14T14:58:50.467Z,8.70
2022-11-14T15:01:19.903Z,8.60
2022-11-14T15:03:49.532Z,8.70
2022-11-14T15:06:29.758Z,8.80
2022-11-14T15:08:58.571Z,8.80
2022-11-14T15:11:32.366Z,8.70
2022-11-14T15:14:01.796Z,8.70
2022-11-14T15:16:30.587Z,8.70
2022-11-14T15:18:59.008Z,8.80
2022-11-14T15:21:28.345Z,8.80
2022-11-14T15:23:59.867Z,8.70
2022-11-14T15:26:29.957Z,8.70
2022-11-14T15:29:05.924Z,8.70
2022-11-14T15:31:35.709Z,8.70
2022-11-14T15:34:05.241Z,8.40
2022-11-14T15:36:33.037Z,8.40
2022-11-14T15:39:01.943Z,8.50
2022-11-14T15:41:31.477Z,8.40
2022-11-14T15:44:08.698Z,8.40
2022-11-14T15:46:41.148Z,8.40
2022-11-14T15:49:09.645Z,8.00
2022-11-14T15:51:42.490Z,8.40
2022-11-14T15:54:21.821Z,8.50
2022-11-14T15:56:51.067Z,8.60
2022-11-14T15:59:19.195Z,8.60
2022-11-14T16:01:48.779Z,8.50
2022-11-14T16:04:18.091Z,9.40
2022-11-14T16:06:46.179Z,8.80
2022-11-14T16:09:15.627Z,8.70
2022-11-14T16:11:43.819Z,8.60
2022-11-14T16:14:13.075Z,8.60
2022-11-14T16:16:40.908Z,8.50
2022-11-14T16:19:08.927Z,8.60
2022-11-14T16:21:38.227Z,8.00
2022-11-14T16:24:06.293Z,8.30
2022-11-14T16:26:34.131Z,8.30
2022-11-14T16:29:02.843Z,8.40
2022-11-14T16:31:32.025Z,8.40
2022-11-14T16:33:59.861Z,8.40
2022-11-14T16:36:27.742Z,8.40
2022-11-14T16:38:59.455Z,8.50
2022-11-14T16:41:27.266Z,8.20
2022-11-14T16:43:55.471Z,8.60
2022-11-14T16:46:23.274Z,8.40
2022-11-14T16:48:52.482Z,8.40
2022-11-14T16:51:46.595Z,8.40
2022-11-14T16:54:08.603Z,8.10
2022-11-14T16:56:36.411Z,8.40
2022-11-14T16:59:06.426Z,8.30
2022-11-14T17:01:34.256Z,8.00
2022-11-14T17:04:03.501Z,8.30
2022-11-14T17:06:31.451Z,8.40
2022-11-14T17:08:59.770Z,8.40
2022-11-14T17:11:27.904Z,8.30
2022-11-14T17:13:55.985Z,8.50
2022-11-14T17:16:24.206Z,8.30
2022-11-14T17:18:52.886Z,8.10
2022-11-14T17:21:22.565Z,8.20
2022-11-14T17:23:54.281Z,8.50
2022-11-14T17:26:22.155Z,8.40
2022-11-14T17:28:50.001Z,8.50
2022-11-14T17:31:18.139Z,8.30
2022-11-14T17:33:51.131Z,8.30
2022-11-14T17:36:19.243Z,8.30
2022-11-14T17:38:48.426Z,8.20
2022-11-14T17:41:16.281Z,8.20
2022-11-14T17:43:44.385Z,8.20
2022-11-14T17:46:15.919Z,8.20
2022-11-14T17:48:44.343Z,8.20
2022-11-14T17:51:13.109Z,8.10
2022-11-14T17:53:41.067Z,8.20
2022-11-14T17:56:10.880Z,8.40
2022-11-14T17:58:38.733Z,8.40
2022-11-14T18:01:10.108Z,8.40
2022-11-14T18:03:38.060Z,8.90
2022-11-14T18:06:06.846Z,8.50
2022-11-14T18:08:35.036Z,8.40
2022-11-14T18:11:03.233Z,8.30
2022-11-14T18:13:32.403Z,8.50
2022-11-14T18:16:03.582Z,8.50
2022-11-14T18:18:32.740Z,8.50
2022-11-14T18:21:06.709Z,8.60
2022-11-14T18:23:35.295Z,8.60
2022-11-14T18:26:09.139Z,8.50
2022-11-14T18:28:38.295Z,8.50
2022-11-14T18:31:07.840Z,8.20
2022-11-14T18:33:35.815Z,8.40
2022-11-14T18:36:04.798Z,8.60
2022-11-14T18:38:33.292Z,8.50
2022-11-14T18:41:03.366Z,8.50
2022-11-14T18:43:33.208Z,8.30
2022-11-14T18:46:10.150Z,8.50
2022-11-14T18:48:38.703Z,8.40
2022-11-14T18:51:07.810Z,8.60
2022-11-14T18:53:36.325Z,8.50
2022-11-14T18:56:04.703Z,8.60
2022-11-14T18:58:32.618Z,8.50
2022-11-14T19:01:00.497Z,8.60
2022-11-14T19:03:31.860Z,8.50
2022-11-14T19:06:02.917Z,8.50
2022-11-14T19:08:30.743Z,8.60
2022-11-14T19:11:01.282Z,8.20
2022-11-14T19:13:29.537Z,8.60
2022-11-14T19:16:01.854Z,8.50
2022-11-14T19:18:32.194Z,8.50
2022-11-14T19:21:00.466Z,8.40
2022-11-14T19:23:28.915Z,8.70
2022-11-14T19:25:59.034Z,8.60
2022-11-14T19:28:27.158Z,8.70
2022-11-14T19:30:54.961Z,8.60
2022-11-14T19:33:22.775Z,9.40
2022-11-14T19:35:51.976Z,8.60
2022-11-14T19:38:19.845Z,8.50
2022-11-14T19:40:50.996Z,8.50
2022-11-14T19:43:18.922Z,8.40
2022-11-14T19:45:46.803Z,8.60
2022-11-14T19:48:14.842Z,8.60
2022-11-14T19:50:42.686Z,8.60
2022-11-14T19:53:12.586Z,8.60
2022-11-14T19:55:40.396Z,8.60
2022-11-14T19:58:08.171Z,8.60
2022-11-14T20:00:36.006Z,8.60
2022-11-14T20:03:03.887Z,8.60
2022-11-14T20:05:32.999Z,8.60
2022-11-14T20:08:00.854Z,8.60
2022-11-14T20:10:30.037Z,8.60
2022-11-14T20:12:57.849Z,8.70
2022-11-14T20:15:26.134Z,8.60
2022-11-14T20:17:53.941Z,8.60
2022-11-14T20:20:21.744Z,8.60
2022-11-14T20:22:49.621Z,8.80
2022-11-14T20:25:17.512Z,8.70
2022-11-14T20:27:46.697Z,8.70
2022-11-14T20:30:14.715Z,8.70
2022-11-14T20:32:42.575Z,8.70
2022-11-14T20:35:10.412Z,8.70
2022-11-14T20:37:38.230Z,8.70
2022-11-14T20:40:06.597Z,8.70
2022-11-14T20:42:34.472Z,8.80
2022-11-14T20:45:03.755Z,9.00
2022-11-14T20:47:31.630Z,8.90
2022-11-14T20:49:59.488Z,9.00
2022-11-14T20:52:27.331Z,9.00
2022-11-14T20:54:55.155Z,9.00
2022-11-14T20:57:22.965Z,9.20
2022-11-14T20:59:50.816Z,9.10
2022-11-14T21:02:20.084Z,9.10
2022-11-14T21:04:48.038Z,9.10
2022-11-14T21:07:15.929Z,9.20
2022-11-14T21:09:43.846Z,9.20
2022-11-14T21:12:11.646Z,9.20
2022-11-14T21:14:39.490Z,9.30
2022-11-14T21:17:07.329Z,9.20
2022-11-14T21:19:36.486Z,9.10
2022-11-14T21:22:04.372Z,9.10
2022-11-14T21:24:36.929Z,9.20
2022-11-14T21:27:11.369Z,9.40
2022-11-14T21:29:39.189Z,9.30
2022-11-14T21:32:07.043Z,8.90
2022-11-14T21:34:36.225Z,9.50
2022-11-14T21:37:04.075Z,9.20
2022-11-14T21:39:31.897Z,9.20
2022-11-14T21:41:59.756Z,9.30
2022-11-14T21:44:27.625Z,9.30
2022-11-14T21:46:55.472Z,9.40
2022-11-14T21:49:23.352Z,9.40
2022-11-14T21:51:52.540Z,9.40
2022-11-14T21:54:20.411Z,9.50
2022-11-14T21:56:48.233Z,9.50
2022-11-14T21:59:21.521Z,9.60
2022-11-14T22:02:07.476Z,9.80
2022-11-14T22:04:35.966Z,9.60
2022-11-14T22:09:33.469Z,9.60
2022-11-14T22:12:01.785Z,9.60
2022-11-14T22:14:30.384Z,9.60
2022-11-14T22:16:58.723Z,9.60
2022-11-14T22:19:26.540Z,9.70
2022-11-14T22:21:54.461Z,9.60
2022-11-14T22:24:22.322Z,9.80
2022-11-14T22:26:51.509Z,10.20
2022-11-14T22:29:19.350Z,9.80
2022-11-14T22:31:47.167Z,9.90
2022-11-14T22:34:15.130Z,9.90
2022-11-14T22:36:42.930Z,9.80
2022-11-14T22:39:10.732Z,9.70
2022-11-14T22:41:38.581Z,9.70
2022-11-14T22:44:07.883Z,9.70
2022-11-14T22:46:35.723Z,9.70
2022-11-14T22:49:04.728Z,9.70
2022-11-14T22:51:32.798Z,9.80
2022-11-14T22:54:00.583Z,9.80
2022-11-14T22:56:29.307Z,9.80
2022-11-14T22:58:57.382Z,9.80
2022-11-14T23:01:27.241Z,9.70
2022-11-14T23:03:55.562Z,9.80
2022-11-14T23:06:23.609Z,9.80
2022-11-14T23:08:51.544Z,9.80
2022-11-14T23:11:20.365Z,9.90
2022-11-14T23:13:48.965Z,9.90
2022-11-14T23:16:17.721Z,9.90
2022-11-14T23:18:47.460Z,9.90
2022-11-14T23:21:16.144Z,9.90
2022-11-14T23:23:44.210Z,10.00
2022-11-14T23:26:13.029Z,10.00
2022-11-14T23:28:41.315Z,10.10
2022-11-14T23:31:09.594Z,10.10
2022-11-14T23:33:37.427Z,10.20
2022-11-14T23:36:06.857Z,10.30
2022-11-14T23:38:34.653Z,10.30
2022-11-14T23:41:02.775Z,10.50
2022-11-14T23:43:31.499Z,10.50
2022-11-14T23:45:59.606Z,10.30
2022-11-14T23:48:27.524Z,10.70
2022-11-14T23:53:24.868Z,10.70
2022-11-14T23:55:53.322Z,10.70
2022-11-14T23:58:21.177Z,10.80
